North Judson, Indiana
Current Conditions -  °F | °C
As of 11:15 AM on Thursday 27 Nov 2014 (Local Time) from KOXI Reporting Station
Overcast Overcast  
Wind Chill: -8°   Ceiling: 1600
Heat Index: -2°   Visibility: 10mi
Dew Point: -6°   Wind: 15mph
Humidity: 78%   Direction: 280°W
Pressure: 30.28"   Gusts: NA
Location:  41.22°N, 86.78°W
Report Text: KOXI 271715Z AUTO 28013KT 10SM OVC016 M02/M05 A3028 RMK AO1 T10211055
Loading
Personal Weather Stations






























Interactive Weather Map New forecast layout! Learn more

10-Day Weather Forecast

Advertisements
Track Severe Weather on mobile